Great — TCYV6 — position and weather

sailwx.info

Track history (hours):
 
Tides and Currents Weather Stations Pressure Air Temp Water Temp Dewpoint Dewpoint Depression Visibility Wind Speed Wind Dir Waves Ship Positions

Great

Last reported at 2014-Sep-16 07:24 UTC. Time now 2014-Sep-19 03:52 UTC.
Position N 37°27' E 024°02'.

Length 187 m; draft 10.1 m.

Type: Cargo ship. MMSI: 271042241.

Date/timePositionNaut miles runAvg speedWind from/ knotsBaromVisibWave heightAir tempDewpointWater temp
2014-Sep-16 07:24N 37°27' E 024°02'1011.5
2014-Sep-16 06:33N 37°35' E 024°09'1211.2
2014-Sep-16 05:29N 37°44' E 024°19'1011.0
2014-Sep-16 04:33N 37°51' E 024°29'8011.4
2014-Sep-15 21:33N 39°03' E 025°14'3411.2
2014-Sep-15 18:32N 39°33' E 025°34'169 7.2
2014-Sep-14 19:05N 40°54' E 028°48'5 9.2
2014-Sep-14 18:32N 40°56' E 028°54'  
2014-Sep-12 09:32N 46°36' E 031°42'8 8.0
2014-Sep-12 08:33N 46°37' E 031°53'7 6.9
2014-Sep-12 07:33N 46°44' E 031°55'6 5.9
2014-Sep-12 06:33N 46°50' E 031°57'0 0.2
2014-Sep-12 05:33N 46°50' E 031°57'0 0.0
2014-Sep-12 04:33N 46°50' E 031°57'0 0.0
2014-Sep-12 03:33N 46°50' E 031°57'0 0.0
2014-Sep-12 02:33N 46°50' E 031°57'0 0.0
2014-Sep-12 01:33N 46°50' E 031°57'0 0.0
2014-Sep-12 00:30N 46°50' E 031°57'0 0.0
2014-Sep-11 23:33N 46°50' E 031°57'0 0.0
2014-Sep-11 22:33N 46°50' E 031°57'0 0.0
2014-Sep-11 21:33N 46°50' E 031°57'0 0.0
2014-Sep-11 20:33N 46°50' E 031°57'0 0.0
2014-Sep-11 19:33N 46°50' E 031°57'0 0.0
2014-Sep-11 18:33N 46°50' E 031°57'0 0.0
2014-Sep-11 17:27N 46°50' E 031°57'0 0.0
2014-Sep-11 16:33N 46°50' E 031°57'0 0.0
2014-Sep-11 15:33N 46°50' E 031°57'0 0.0
2014-Sep-11 14:33N 46°50' E 031°57'0 0.0
2014-Sep-11 13:33N 46°50' E 031°57'0 0.0
2014-Sep-11 12:33N 46°50' E 031°57'0 0.0
2014-Sep-11 11:33N 46°50' E 031°57'0 0.0
2014-Sep-11 10:33N 46°50' E 031°57'0 0.0
2014-Sep-11 09:33N 46°50' E 031°57'0 0.0
2014-Sep-11 08:33N 46°50' E 031°57'0 0.0
2014-Sep-11 07:30N 46°50' E 031°57'0 0.0
2014-Sep-11 06:33N 46°50' E 031°57'0 0.0
2014-Sep-11 05:33N 46°50' E 031°57'0 0.0
2014-Sep-11 04:33N 46°50' E 031°57'0 0.0
2014-Sep-11 03:33N 46°50' E 031°57'0 0.0
2014-Sep-11 02:30N 46°50' E 031°57'0 0.0
2014-Sep-11 01:33N 46°50' E 031°57'0 0.0
2014-Sep-11 00:33N 46°50' E 031°57'0 0.0
2014-Sep-10 23:33N 46°50' E 031°57'0 0.0
2014-Sep-10 22:33N 46°50' E 031°57'0 0.0
2014-Sep-10 21:33N 46°50' E 031°57'0 0.0
2014-Sep-10 20:33N 46°50' E 031°57'0 0.0
2014-Sep-10 19:33N 46°50' E 031°57'0 0.0
2014-Sep-10 18:33N 46°50' E 031°57'0 0.0
2014-Sep-10 17:33N 46°50' E 031°57'0 0.0
2014-Sep-10 16:33N 46°50' E 031°57'0 0.0
2014-Sep-10 15:33N 46°50' E 031°57'0 0.0
2014-Sep-10 14:33N 46°50' E 031°57'0 0.0
2014-Sep-10 13:33N 46°50' E 031°57'0 0.0
2014-Sep-10 12:33N 46°50' E 031°57'0 0.0
2014-Sep-10 11:33N 46°50' E 031°57'0 0.0
2014-Sep-10 10:33N 46°50' E 031°57'0 0.0
2014-Sep-10 09:33N 46°50' E 031°57'0 0.0
2014-Sep-10 08:33N 46°50' E 031°57'0 0.0
2014-Sep-10 07:33N 46°50' E 031°57'0 0.0
2014-Sep-10 06:33N 46°50' E 031°57'0 0.0
2014-Sep-10 05:33N 46°50' E 031°57'0 0.0
2014-Sep-10 04:32N 46°50' E 031°57'0 0.0
2014-Sep-10 03:32N 46°50' E 031°57'0 0.0
2014-Sep-10 02:32N 46°50' E 031°57'0 0.0
2014-Sep-10 01:32N 46°50' E 031°57'0 0.0
2014-Sep-10 00:32N 46°50' E 031°57'0 0.0
2014-Sep-09 23:32N 46°50' E 031°57'0 0.0
2014-Sep-09 22:32N 46°50' E 031°57'0 0.0
2014-Sep-09 21:29N 46°50' E 031°57'0 0.0
2014-Sep-09 20:32N 46°50' E 031°57'0 0.0
2014-Sep-09 19:32N 46°50' E 031°57'0 0.0
2014-Sep-09 18:32N 46°50' E 031°57'0 0.0
2014-Sep-09 17:32N 46°50' E 031°57'0 0.0
2014-Sep-09 16:32N 46°50' E 031°57'0 0.0
2014-Sep-09 15:32N 46°50' E 031°57'0 0.0
2014-Sep-09 14:32N 46°50' E 031°57'0 0.0
2014-Sep-09 13:32N 46°50' E 031°57'0 0.0
2014-Sep-09 12:32N 46°50' E 031°57'0 0.0
2014-Sep-09 11:29N 46°50' E 031°57'0 0.0
2014-Sep-09 10:32N 46°50' E 031°57'0 0.0
2014-Sep-09 09:32N 46°50' E 031°57'0 0.0
2014-Sep-09 08:32N 46°50' E 031°57'0 0.0
2014-Sep-09 07:32N 46°50' E 031°57'0 0.0
2014-Sep-09 06:32N 46°50' E 031°57'0 0.0
2014-Sep-09 05:32N 46°50' E 031°57'0 0.0
2014-Sep-09 04:32N 46°50' E 031°57'0 0.0
2014-Sep-09 03:32N 46°50' E 031°57'0 0.0
2014-Sep-09 02:32N 46°50' E 031°57'0 0.0
2014-Sep-09 01:32N 46°50' E 031°57'0 0.0
2014-Sep-09 00:32N 46°50' E 031°57'0 0.0
2014-Sep-08 23:32N 46°50' E 031°57'0 0.0
2014-Sep-08 22:29N 46°50' E 031°57'0 0.0
2014-Sep-08 21:32N 46°50' E 031°57'0 0.0
2014-Sep-08 20:32N 46°50' E 031°57'0 0.0
2014-Sep-08 19:32N 46°50' E 031°57'0 0.0
2014-Sep-08 18:32N 46°50' E 031°57'0 0.0
2014-Sep-08 17:32N 46°50' E 031°57'0 0.0
2014-Sep-08 16:32N 46°50' E 031°57'0 0.0
2014-Sep-08 15:32N 46°50' E 031°57'0 0.0
2014-Sep-08 14:29N 46°50' E 031°57'0 0.0
2014-Sep-08 13:29N 46°50' E 031°57'0 0.0
2014-Sep-08 12:32N 46°50' E 031°57'0 0.0
2014-Sep-08 11:32N 46°50' E 031°57'0 0.2
2014-Sep-08 10:33N 46°50' E 031°57'6 5.6
2014-Sep-08 09:33N 46°45' E 031°54'9 8.8
2014-Sep-08 08:29N 46°36' E 031°49'4 4.2
2014-Sep-08 07:29N 46°36' E 031°43'0 0.0
2014-Sep-08 06:23N 46°36' E 031°43'4 5.4
2014-Sep-08 05:33N 46°35' E 031°36'2310.5
2014-Sep-08 03:24N 46°34' E 031°04'7 6.6
2014-Sep-08 02:21N 46°29' E 030°57'8 9.9
2014-Sep-08 01:31N 46°21' E 030°57'2310.7
2014-Sep-07 23:24N 45°60' E 031°08'  
Track history (hours):
 
Tides and Currents Weather Stations Pressure Air Temp Water Temp Dewpoint Dewpoint Depression Visibility Wind Speed Wind Dir Waves Ship Positions

Great

Last reported at 2014-Sep-16 07:24 UTC. Time now 2014-Sep-19 03:52 UTC.
Position N 37°27' E 024°02'.

Length 187 m; draft 10.1 m.

Type: Cargo ship. MMSI: 271042241.

Date/timePositionNaut miles runAvg speedWind from/ knotsBaromVisibWave heightAir tempDewpointWater temp
2014-Sep-16 07:24N 37°27' E 024°02'1011.5
2014-Sep-16 06:33N 37°35' E 024°09'1211.2
2014-Sep-16 05:29N 37°44' E 024°19'1011.0
2014-Sep-16 04:33N 37°51' E 024°29'8011.4
2014-Sep-15 21:33N 39°03' E 025°14'3411.2
2014-Sep-15 18:32N 39°33' E 025°34'169 7.2
2014-Sep-14 19:05N 40°54' E 028°48'5 9.2
2014-Sep-14 18:32N 40°56' E 028°54'  
2014-Sep-12 09:32N 46°36' E 031°42'8 8.0
2014-Sep-12 08:33N 46°37' E 031°53'7 6.9
2014-Sep-12 07:33N 46°44' E 031°55'6 5.9
2014-Sep-12 06:33N 46°50' E 031°57'0 0.2
2014-Sep-12 05:33N 46°50' E 031°57'0 0.0
2014-Sep-12 04:33N 46°50' E 031°57'0 0.0
2014-Sep-12 03:33N 46°50' E 031°57'0 0.0
2014-Sep-12 02:33N 46°50' E 031°57'0 0.0
2014-Sep-12 01:33N 46°50' E 031°57'0 0.0
2014-Sep-12 00:30N 46°50' E 031°57'0 0.0
2014-Sep-11 23:33N 46°50' E 031°57'0 0.0
2014-Sep-11 22:33N 46°50' E 031°57'0 0.0
2014-Sep-11 21:33N 46°50' E 031°57'0 0.0
2014-Sep-11 20:33N 46°50' E 031°57'0 0.0
2014-Sep-11 19:33N 46°50' E 031°57'0 0.0
2014-Sep-11 18:33N 46°50' E 031°57'0 0.0
2014-Sep-11 17:27N 46°50' E 031°57'0 0.0
2014-Sep-11 16:33N 46°50' E 031°57'0 0.0
2014-Sep-11 15:33N 46°50' E 031°57'0 0.0
2014-Sep-11 14:33N 46°50' E 031°57'0 0.0
2014-Sep-11 13:33N 46°50' E 031°57'0 0.0
2014-Sep-11 12:33N 46°50' E 031°57'0 0.0
2014-Sep-11 11:33N 46°50' E 031°57'0 0.0
2014-Sep-11 10:33N 46°50' E 031°57'0 0.0
2014-Sep-11 09:33N 46°50' E 031°57'0 0.0
2014-Sep-11 08:33N 46°50' E 031°57'0 0.0
2014-Sep-11 07:30N 46°50' E 031°57'0 0.0
2014-Sep-11 06:33N 46°50' E 031°57'0 0.0
2014-Sep-11 05:33N 46°50' E 031°57'0 0.0
2014-Sep-11 04:33N 46°50' E 031°57'0 0.0
2014-Sep-11 03:33N 46°50' E 031°57'0 0.0
2014-Sep-11 02:30N 46°50' E 031°57'0 0.0
2014-Sep-11 01:33N 46°50' E 031°57'0 0.0
2014-Sep-11 00:33N 46°50' E 031°57'0 0.0
2014-Sep-10 23:33N 46°50' E 031°57'0 0.0
2014-Sep-10 22:33N 46°50' E 031°57'0 0.0
2014-Sep-10 21:33N 46°50' E 031°57'0 0.0
2014-Sep-10 20:33N 46°50' E 031°57'0 0.0
2014-Sep-10 19:33N 46°50' E 031°57'0 0.0
2014-Sep-10 18:33N 46°50' E 031°57'0 0.0
2014-Sep-10 17:33N 46°50' E 031°57'0 0.0
2014-Sep-10 16:33N 46°50' E 031°57'0 0.0
2014-Sep-10 15:33N 46°50' E 031°57'0 0.0
2014-Sep-10 14:33N 46°50' E 031°57'0 0.0
2014-Sep-10 13:33N 46°50' E 031°57'0 0.0
2014-Sep-10 12:33N 46°50' E 031°57'0 0.0
2014-Sep-10 11:33N 46°50' E 031°57'0 0.0
2014-Sep-10 10:33N 46°50' E 031°57'0 0.0
2014-Sep-10 09:33N 46°50' E 031°57'0 0.0
2014-Sep-10 08:33N 46°50' E 031°57'0 0.0
2014-Sep-10 07:33N 46°50' E 031°57'0 0.0
2014-Sep-10 06:33N 46°50' E 031°57'0 0.0
2014-Sep-10 05:33N 46°50' E 031°57'0 0.0
2014-Sep-10 04:32N 46°50' E 031°57'0 0.0
2014-Sep-10 03:32N 46°50' E 031°57'0 0.0
2014-Sep-10 02:32N 46°50' E 031°57'0 0.0
2014-Sep-10 01:32N 46°50' E 031°57'0 0.0
2014-Sep-10 00:32N 46°50' E 031°57'0 0.0
2014-Sep-09 23:32N 46°50' E 031°57'0 0.0
2014-Sep-09 22:32N 46°50' E 031°57'0 0.0
2014-Sep-09 21:29N 46°50' E 031°57'0 0.0
2014-Sep-09 20:32N 46°50' E 031°57'0 0.0
2014-Sep-09 19:32N 46°50' E 031°57'0 0.0
2014-Sep-09 18:32N 46°50' E 031°57'0 0.0
2014-Sep-09 17:32N 46°50' E 031°57'0 0.0
2014-Sep-09 16:32N 46°50' E 031°57'0 0.0
2014-Sep-09 15:32N 46°50' E 031°57'0 0.0
2014-Sep-09 14:32N 46°50' E 031°57'0 0.0
2014-Sep-09 13:32N 46°50' E 031°57'0 0.0
2014-Sep-09 12:32N 46°50' E 031°57'0 0.0
2014-Sep-09 11:29N 46°50' E 031°57'0 0.0
2014-Sep-09 10:32N 46°50' E 031°57'0 0.0
2014-Sep-09 09:32N 46°50' E 031°57'0 0.0
2014-Sep-09 08:32N 46°50' E 031°57'0 0.0
2014-Sep-09 07:32N 46°50' E 031°57'0 0.0
2014-Sep-09 06:32N 46°50' E 031°57'0 0.0
2014-Sep-09 05:32N 46°50' E 031°57'0 0.0
2014-Sep-09 04:32N 46°50' E 031°57'0 0.0
2014-Sep-09 03:32N 46°50' E 031°57'0 0.0
2014-Sep-09 02:32N 46°50' E 031°57'0 0.0
2014-Sep-09 01:32N 46°50' E 031°57'0 0.0
2014-Sep-09 00:32N 46°50' E 031°57'0 0.0
2014-Sep-08 23:32N 46°50' E 031°57'0 0.0
2014-Sep-08 22:29N 46°50' E 031°57'0 0.0
2014-Sep-08 21:32N 46°50' E 031°57'0 0.0
2014-Sep-08 20:32N 46°50' E 031°57'0 0.0
2014-Sep-08 19:32N 46°50' E 031°57'0 0.0
2014-Sep-08 18:32N 46°50' E 031°57'0 0.0
2014-Sep-08 17:32N 46°50' E 031°57'0 0.0
2014-Sep-08 16:32N 46°50' E 031°57'0 0.0
2014-Sep-08 15:32N 46°50' E 031°57'0 0.0
2014-Sep-08 14:29N 46°50' E 031°57'0 0.0
2014-Sep-08 13:29N 46°50' E 031°57'0 0.0
2014-Sep-08 12:32N 46°50' E 031°57'0 0.0
2014-Sep-08 11:32N 46°50' E 031°57'0 0.2
2014-Sep-08 10:33N 46°50' E 031°57'6 5.6
2014-Sep-08 09:33N 46°45' E 031°54'9 8.8
2014-Sep-08 08:29N 46°36' E 031°49'4 4.2
2014-Sep-08 07:29N 46°36' E 031°43'0 0.0
2014-Sep-08 06:23N 46°36' E 031°43'4 5.4
2014-Sep-08 05:33N 46°35' E 031°36'2310.5
2014-Sep-08 03:24N 46°34' E 031°04'7 6.6
2014-Sep-08 02:21N 46°29' E 030°57'8 9.9
2014-Sep-08 01:31N 46°21' E 030°57'2310.7
2014-Sep-07 23:24N 45°60' E 031°08'  

Dump ship's entire track history